sensor_id;sensor_type;location;lat;lon;timestamp;P1;durP1;ratioP1;P2;durP2;ratioP2
2039;SDS011;1025;42.686;23.350;2023-05-07T00:02:21;13.10;;;11.03;;
2039;SDS011;1025;42.686;23.350;2023-05-07T00:04:48;15.03;;;10.30;;
2039;SDS011;1025;42.686;23.350;2023-05-07T00:07:15;11.70;;;10.50;;
2039;SDS011;1025;42.686;23.350;2023-05-07T00:09:41;13.27;;;11.23;;
2039;SDS011;1025;42.686;23.350;2023-05-07T00:12:08;13.70;;;12.50;;
2039;SDS011;1025;42.686;23.350;2023-05-07T00:14:34;12.70;;;11.60;;
2039;SDS011;1025;42.686;23.350;2023-05-07T00:17:02;13.87;;;12.57;;
2039;SDS011;1025;42.686;23.350;2023-05-07T00:19:29;13.77;;;12.37;;
2039;SDS011;1025;42.686;23.350;2023-05-07T00:21:55;13.03;;;11.80;;
2039;SDS011;1025;42.686;23.350;2023-05-07T00:24:23;16.53;;;13.17;;
2039;SDS011;1025;42.686;23.350;2023-05-07T00:26:49;13.53;;;11.80;;
2039;SDS011;1025;42.686;23.350;2023-05-07T00:29:17;13.07;;;11.77;;
2039;SDS011;1025;42.686;23.350;2023-05-07T00:31:44;15.37;;;12.90;;
2039;SDS011;1025;42.686;23.350;2023-05-07T00:34:12;12.57;;;11.37;;
2039;SDS011;1025;42.686;23.350;2023-05-07T00:36:38;12.67;;;11.47;;
2039;SDS011;1025;42.686;23.350;2023-05-07T00:39:05;14.00;;;12.50;;
2039;SDS011;1025;42.686;23.350;2023-05-07T00:41:32;14.17;;;12.70;;
2039;SDS011;1025;42.686;23.350;2023-05-07T00:43:58;14.63;;;13.10;;
2039;SDS011;1025;42.686;23.350;2023-05-07T00:46:25;12.67;;;11.47;;
2039;SDS011;1025;42.686;23.350;2023-05-07T00:48:52;14.90;;;13.47;;
2039;SDS011;1025;42.686;23.350;2023-05-07T00:51:20;13.50;;;12.10;;
2039;SDS011;1025;42.686;23.350;2023-05-07T00:53:47;12.80;;;11.60;;
2039;SDS011;1025;42.686;23.350;2023-05-07T00:56:13;13.43;;;12.17;;
2039;SDS011;1025;42.686;23.350;2023-05-07T00:58:40;12.87;;;11.57;;
2039;SDS011;1025;42.686;23.350;2023-05-07T01:01:07;12.87;;;11.77;;
2039;SDS011;1025;42.686;23.350;2023-05-07T01:03:33;12.10;;;10.90;;
2039;SDS011;1025;42.686;23.350;2023-05-07T01:06:00;11.67;;;10.57;;
2039;SDS011;1025;42.686;23.350;2023-05-07T01:08:29;13.90;;;12.40;;
2039;SDS011;1025;42.686;23.350;2023-05-07T01:10:56;11.87;;;10.70;;
2039;SDS011;1025;42.686;23.350;2023-05-07T01:13:23;12.50;;;11.20;;
2039;SDS011;1025;42.686;23.350;2023-05-07T01:15:50;12.57;;;11.40;;
2039;SDS011;1025;42.686;23.350;2023-05-07T01:18:16;12.47;;;11.20;;
2039;SDS011;1025;42.686;23.350;2023-05-07T01:20:43;11.33;;;10.27;;
2039;SDS011;1025;42.686;23.350;2023-05-07T01:23:11;11.70;;;9.17;;
2039;SDS011;1025;42.686;23.350;2023-05-07T01:25:38;10.00;;;9.00;;
2039;SDS011;1025;42.686;23.350;2023-05-07T01:28:04;10.07;;;9.07;;
2039;SDS011;1025;42.686;23.350;2023-05-07T01:30:31;9.33;;;8.50;;
2039;SDS011;1025;42.686;23.350;2023-05-07T01:32:58;7.90;;;7.20;;
2039;SDS011;1025;42.686;23.350;2023-05-07T01:35:27;9.00;;;8.20;;
2039;SDS011;1025;42.686;23.350;2023-05-07T01:37:55;9.30;;;7.97;;
2039;SDS011;1025;42.686;23.350;2023-05-07T01:40:24;8.10;;;7.40;;
2039;SDS011;1025;42.686;23.350;2023-05-07T01:42:50;8.13;;;7.47;;
2039;SDS011;1025;42.686;23.350;2023-05-07T01:45:17;7.87;;;7.27;;
2039;SDS011;1025;42.686;23.350;2023-05-07T01:47:43;6.47;;;5.97;;
2039;SDS011;1025;42.686;23.350;2023-05-07T01:50:10;7.83;;;7.13;;
2039;SDS011;1025;42.686;23.350;2023-05-07T01:52:37;6.33;;;5.83;;
2039;SDS011;1025;42.686;23.350;2023-05-07T01:55:04;6.50;;;5.90;;
2039;SDS011;1025;42.686;23.350;2023-05-07T01:57:32;8.50;;;6.90;;
2039;SDS011;1025;42.686;23.350;2023-05-07T01:59:59;7.37;;;6.67;;
2039;SDS011;1025;42.686;23.350;2023-05-07T02:02:25;6.87;;;6.30;;
2039;SDS011;1025;42.686;23.350;2023-05-07T02:04:52;6.67;;;6.17;;
2039;SDS011;1025;42.686;23.350;2023-05-07T02:07:18;7.43;;;6.73;;
2039;SDS011;1025;42.686;23.350;2023-05-07T02:09:45;8.30;;;7.47;;
2039;SDS011;1025;42.686;23.350;2023-05-07T02:12:11;6.93;;;6.37;;
2039;SDS011;1025;42.686;23.350;2023-05-07T02:14:39;7.27;;;6.77;;
2039;SDS011;1025;42.686;23.350;2023-05-07T02:17:07;7.97;;;7.17;;
2039;SDS011;1025;42.686;23.350;2023-05-07T02:19:33;7.90;;;7.20;;
2039;SDS011;1025;42.686;23.350;2023-05-07T02:22:00;9.57;;;8.53;;
2039;SDS011;1025;42.686;23.350;2023-05-07T02:24:26;8.60;;;7.00;;
2039;SDS011;1025;42.686;23.350;2023-05-07T02:26:53;8.27;;;7.50;;
2039;SDS011;1025;42.686;23.350;2023-05-07T02:29:19;8.00;;;7.40;;
2039;SDS011;1025;42.686;23.350;2023-05-07T02:31:47;7.97;;;7.27;;
2039;SDS011;1025;42.686;23.350;2023-05-07T02:34:15;8.57;;;7.70;;
2039;SDS011;1025;42.686;23.350;2023-05-07T02:36:42;10.07;;;9.17;;
2039;SDS011;1025;42.686;23.350;2023-05-07T02:39:08;12.90;;;9.50;;
2039;SDS011;1025;42.686;23.350;2023-05-07T02:41:35;9.67;;;8.77;;
2039;SDS011;1025;42.686;23.350;2023-05-07T02:44:01;9.83;;;8.90;;
2039;SDS011;1025;42.686;23.350;2023-05-07T02:46:28;11.63;;;10.40;;
2039;SDS011;1025;42.686;23.350;2023-05-07T02:48:56;10.67;;;9.87;;
2039;SDS011;1025;42.686;23.350;2023-05-07T02:51:22;11.47;;;10.57;;
2039;SDS011;1025;42.686;23.350;2023-05-07T02:53:49;11.20;;;10.17;;
2039;SDS011;1025;42.686;23.350;2023-05-07T02:56:15;11.10;;;10.07;;
2039;SDS011;1025;42.686;23.350;2023-05-07T02:58:42;13.83;;;11.53;;
2039;SDS011;1025;42.686;23.350;2023-05-07T03:01:08;13.33;;;12.13;;
2039;SDS011;1025;42.686;23.350;2023-05-07T03:03:35;11.47;;;10.37;;
2039;SDS011;1025;42.686;23.350;2023-05-07T03:06:03;12.00;;;10.80;;
2039;SDS011;1025;42.686;23.350;2023-05-07T03:08:29;12.50;;;11.20;;
2039;SDS011;1025;42.686;23.350;2023-05-07T03:10:56;12.33;;;11.23;;
2039;SDS011;1025;42.686;23.350;2023-05-07T03:13:22;13.63;;;12.33;;
2039;SDS011;1025;42.686;23.350;2023-05-07T03:15:49;12.83;;;11.63;;
2039;SDS011;1025;42.686;23.350;2023-05-07T03:18:16;12.70;;;11.60;;
2039;SDS011;1025;42.686;23.350;2023-05-07T03:20:42;13.20;;;11.90;;
2039;SDS011;1025;42.686;23.350;2023-05-07T03:23:10;13.40;;;12.10;;
2039;SDS011;1025;42.686;23.350;2023-05-07T03:25:37;14.53;;;13.03;;
2039;SDS011;1025;42.686;23.350;2023-05-07T03:28:03;12.83;;;11.53;;
2039;SDS011;1025;42.686;23.350;2023-05-07T03:30:30;13.90;;;12.60;;
2039;SDS011;1025;42.686;23.350;2023-05-07T03:32:57;15.33;;;13.80;;
2039;SDS011;1025;42.686;23.350;2023-05-07T03:35:23;15.27;;;13.83;;
2039;SDS011;1025;42.686;23.350;2023-05-07T03:37:50;15.10;;;13.70;;
2039;SDS011;1025;42.686;23.350;2023-05-07T03:40:18;14.70;;;13.30;;
2039;SDS011;1025;42.686;23.350;2023-05-07T03:42:44;13.97;;;12.47;;
2039;SDS011;1025;42.686;23.350;2023-05-07T03:45:11;14.63;;;13.03;;
2039;SDS011;1025;42.686;23.350;2023-05-07T03:47:37;16.87;;;12.60;;
2039;SDS011;1025;42.686;23.350;2023-05-07T03:50:04;12.63;;;11.30;;
2039;SDS011;1025;42.686;23.350;2023-05-07T03:52:31;14.10;;;11.50;;
2039;SDS011;1025;42.686;23.350;2023-05-07T03:54:57;11.50;;;10.47;;
2039;SDS011;1025;42.686;23.350;2023-05-07T03:57:25;11.67;;;10.67;;
2039;SDS011;1025;42.686;23.350;2023-05-07T03:59:52;12.80;;;10.90;;
2039;SDS011;1025;42.686;23.350;2023-05-07T04:02:18;12.40;;;10.10;;
2039;SDS011;1025;42.686;23.350;2023-05-07T04:04:45;17.20;;;10.57;;
2039;SDS011;1025;42.686;23.350;2023-05-07T04:07:11;10.70;;;9.60;;
2039;SDS011;1025;42.686;23.350;2023-05-07T04:09:38;12.20;;;10.03;;
2039;SDS011;1025;42.686;23.350;2023-05-07T04:12:05;11.37;;;9.93;;
2039;SDS011;1025;42.686;23.350;2023-05-07T04:14:32;10.80;;;9.80;;
2039;SDS011;1025;42.686;23.350;2023-05-07T04:16:59;15.37;;;9.70;;
2039;SDS011;1025;42.686;23.350;2023-05-07T04:19:25;12.47;;;9.90;;
2039;SDS011;1025;42.686;23.350;2023-05-07T04:21:52;13.63;;;10.70;;
2039;SDS011;1025;42.686;23.350;2023-05-07T04:24:19;9.33;;;8.23;;
2039;SDS011;1025;42.686;23.350;2023-05-07T04:26:45;10.70;;;9.70;;
2039;SDS011;1025;42.686;23.350;2023-05-07T04:29:12;15.30;;;10.00;;
2039;SDS011;1025;42.686;23.350;2023-05-07T04:31:40;18.47;;;10.87;;
2039;SDS011;1025;42.686;23.350;2023-05-07T04:34:09;11.80;;;9.40;;
2039;SDS011;1025;42.686;23.350;2023-05-07T04:36:36;23.07;;;10.90;;
2039;SDS011;1025;42.686;23.350;2023-05-07T04:39:02;15.80;;;9.23;;
2039;SDS011;1025;42.686;23.350;2023-05-07T04:41:29;12.50;;;10.47;;
2039;SDS011;1025;42.686;23.350;2023-05-07T04:43:56;10.43;;;9.43;;
2039;SDS011;1025;42.686;23.350;2023-05-07T04:46:24;15.03;;;8.70;;
2039;SDS011;1025;42.686;23.350;2023-05-07T04:48:52;15.90;;;10.83;;
2039;SDS011;1025;42.686;23.350;2023-05-07T04:51:18;11.27;;;10.23;;
2039;SDS011;1025;42.686;23.350;2023-05-07T04:53:45;11.00;;;8.73;;
2039;SDS011;1025;42.686;23.350;2023-05-07T04:56:11;9.93;;;8.97;;
2039;SDS011;1025;42.686;23.350;2023-05-07T04:58:38;11.83;;;10.63;;
2039;SDS011;1025;42.686;23.350;2023-05-07T05:01:05;17.77;;;11.33;;
2039;SDS011;1025;42.686;23.350;2023-05-07T05:03:31;13.83;;;9.93;;
2039;SDS011;1025;42.686;23.350;2023-05-07T05:05:59;12.13;;;9.53;;
2039;SDS011;1025;42.686;23.350;2023-05-07T05:08:25;31.80;;;12.30;;
2039;SDS011;1025;42.686;23.350;2023-05-07T05:10:52;11.47;;;10.33;;
2039;SDS011;1025;42.686;23.350;2023-05-07T05:13:19;12.10;;;9.20;;
2039;SDS011;1025;42.686;23.350;2023-05-07T05:15:46;10.23;;;9.07;;
2039;SDS011;1025;42.686;23.350;2023-05-07T05:18:12;10.63;;;9.83;;
2039;SDS011;1025;42.686;23.350;2023-05-07T05:20:41;10.40;;;9.23;;
2039;SDS011;1025;42.686;23.350;2023-05-07T05:23:09;11.40;;;9.97;;
2039;SDS011;1025;42.686;23.350;2023-05-07T05:25:35;32.80;;;12.90;;
2039;SDS011;1025;42.686;23.350;2023-05-07T05:28:02;17.20;;;10.33;;
2039;SDS011;1025;42.686;23.350;2023-05-07T05:30:29;11.33;;;10.23;;
2039;SDS011;1025;42.686;23.350;2023-05-07T05:32:55;12.03;;;9.57;;
2039;SDS011;1025;42.686;23.350;2023-05-07T05:35:22;11.10;;;9.97;;
2039;SDS011;1025;42.686;23.350;2023-05-07T05:37:48;10.13;;;9.13;;
2039;SDS011;1025;42.686;23.350;2023-05-07T05:40:16;13.57;;;10.47;;
2039;SDS011;1025;42.686;23.350;2023-05-07T05:42:43;9.13;;;8.20;;
2039;SDS011;1025;42.686;23.350;2023-05-07T05:45:10;10.63;;;9.20;;
2039;SDS011;1025;42.686;23.350;2023-05-07T05:47:37;9.43;;;8.60;;
2039;SDS011;1025;42.686;23.350;2023-05-07T05:50:04;11.90;;;10.90;;
2039;SDS011;1025;42.686;23.350;2023-05-07T05:52:31;11.73;;;10.47;;
2039;SDS011;1025;42.686;23.350;2023-05-07T05:54:57;10.50;;;9.60;;
2039;SDS011;1025;42.686;23.350;2023-05-07T05:57:25;9.67;;;8.87;;
2039;SDS011;1025;42.686;23.350;2023-05-07T05:59:52;9.20;;;8.30;;
2039;SDS011;1025;42.686;23.350;2023-05-07T06:02:19;11.50;;;10.43;;
2039;SDS011;1025;42.686;23.350;2023-05-07T06:04:46;12.07;;;9.40;;
2039;SDS011;1025;42.686;23.350;2023-05-07T06:07:13;11.07;;;9.97;;
2039;SDS011;1025;42.686;23.350;2023-05-07T06:09:39;10.27;;;9.47;;
2039;SDS011;1025;42.686;23.350;2023-05-07T06:12:06;13.33;;;9.40;;
2039;SDS011;1025;42.686;23.350;2023-05-07T06:14:34;9.00;;;8.23;;
2039;SDS011;1025;42.686;23.350;2023-05-07T06:17:00;12.10;;;9.43;;
2039;SDS011;1025;42.686;23.350;2023-05-07T06:19:27;10.80;;;9.70;;
2039;SDS011;1025;42.686;23.350;2023-05-07T06:21:53;10.37;;;9.47;;
2039;SDS011;1025;42.686;23.350;2023-05-07T06:24:21;10.70;;;9.70;;
2039;SDS011;1025;42.686;23.350;2023-05-07T06:26:48;10.27;;;9.33;;
2039;SDS011;1025;42.686;23.350;2023-05-07T06:29:14;9.40;;;8.60;;
2039;SDS011;1025;42.686;23.350;2023-05-07T06:31:42;11.33;;;9.07;;
2039;SDS011;1025;42.686;23.350;2023-05-07T06:34:09;10.00;;;7.87;;
2039;SDS011;1025;42.686;23.350;2023-05-07T06:36:39;10.80;;;9.40;;
2039;SDS011;1025;42.686;23.350;2023-05-07T06:39:05;10.93;;;9.93;;
2039;SDS011;1025;42.686;23.350;2023-05-07T06:41:32;11.90;;;10.80;;
2039;SDS011;1025;42.686;23.350;2023-05-07T06:43:59;13.67;;;10.67;;
2039;SDS011;1025;42.686;23.350;2023-05-07T06:46:27;9.83;;;8.93;;
2039;SDS011;1025;42.686;23.350;2023-05-07T06:48:55;11.03;;;9.90;;
2039;SDS011;1025;42.686;23.350;2023-05-07T06:51:22;9.80;;;8.90;;
2039;SDS011;1025;42.686;23.350;2023-05-07T06:53:49;11.63;;;10.33;;
2039;SDS011;1025;42.686;23.350;2023-05-07T06:56:15;11.80;;;10.90;;
2039;SDS011;1025;42.686;23.350;2023-05-07T06:58:42;11.67;;;10.57;;
2039;SDS011;1025;42.686;23.350;2023-05-07T07:01:08;11.30;;;10.30;;
2039;SDS011;1025;42.686;23.350;2023-05-07T07:03:35;11.93;;;9.50;;
2039;SDS011;1025;42.686;23.350;2023-05-07T07:06:03;11.87;;;10.87;;
2039;SDS011;1025;42.686;23.350;2023-05-07T07:08:29;16.63;;;10.37;;
2039;SDS011;1025;42.686;23.350;2023-05-07T07:10:56;11.80;;;10.30;;
2039;SDS011;1025;42.686;23.350;2023-05-07T07:13:23;12.20;;;10.70;;
2039;SDS011;1025;42.686;23.350;2023-05-07T07:15:51;12.83;;;11.50;;
2039;SDS011;1025;42.686;23.350;2023-05-07T07:18:17;10.40;;;9.50;;
2039;SDS011;1025;42.686;23.350;2023-05-07T07:20:44;11.47;;;10.37;;
2039;SDS011;1025;42.686;23.350;2023-05-07T07:23:12;11.47;;;10.47;;
2039;SDS011;1025;42.686;23.350;2023-05-07T07:25:38;11.70;;;10.40;;
2039;SDS011;1025;42.686;23.350;2023-05-07T07:28:05;11.10;;;10.00;;
2039;SDS011;1025;42.686;23.350;2023-05-07T07:30:31;14.97;;;10.23;;
2039;SDS011;1025;42.686;23.350;2023-05-07T07:32:58;11.13;;;9.93;;
2039;SDS011;1025;42.686;23.350;2023-05-07T07:35:28;11.13;;;10.03;;
2039;SDS011;1025;42.686;23.350;2023-05-07T07:37:54;9.67;;;8.80;;
2039;SDS011;1025;42.686;23.350;2023-05-07T07:40:22;10.60;;;9.60;;
2039;SDS011;1025;42.686;23.350;2023-05-07T07:42:49;11.70;;;10.53;;
2039;SDS011;1025;42.686;23.350;2023-05-07T07:45:15;11.80;;;10.70;;
2039;SDS011;1025;42.686;23.350;2023-05-07T07:47:42;10.10;;;9.20;;
2039;SDS011;1025;42.686;23.350;2023-05-07T07:50:09;9.90;;;9.00;;
2039;SDS011;1025;42.686;23.350;2023-05-07T07:52:35;26.37;;;10.47;;
2039;SDS011;1025;42.686;23.350;2023-05-07T07:55:02;36.07;;;11.83;;
2039;SDS011;1025;42.686;23.350;2023-05-07T07:57:31;9.20;;;8.30;;
2039;SDS011;1025;42.686;23.350;2023-05-07T07:59:57;10.73;;;9.07;;
2039;SDS011;1025;42.686;23.350;2023-05-07T08:02:24;11.33;;;10.23;;
2039;SDS011;1025;42.686;23.350;2023-05-07T08:04:50;12.87;;;10.00;;
2039;SDS011;1025;42.686;23.350;2023-05-07T08:07:17;9.83;;;8.87;;
2039;SDS011;1025;42.686;23.350;2023-05-07T08:09:45;8.63;;;7.83;;
2039;SDS011;1025;42.686;23.350;2023-05-07T08:12:12;13.53;;;9.50;;
2039;SDS011;1025;42.686;23.350;2023-05-07T08:14:40;9.20;;;8.40;;
2039;SDS011;1025;42.686;23.350;2023-05-07T08:17:07;10.63;;;9.80;;
2039;SDS011;1025;42.686;23.350;2023-05-07T08:19:34;11.77;;;9.27;;
2039;SDS011;1025;42.686;23.350;2023-05-07T08:22:01;10.97;;;8.37;;
2039;SDS011;1025;42.686;23.350;2023-05-07T08:24:28;9.13;;;8.33;;
2039;SDS011;1025;42.686;23.350;2023-05-07T08:26:54;8.77;;;7.97;;
2039;SDS011;1025;42.686;23.350;2023-05-07T08:29:21;9.80;;;8.80;;
2039;SDS011;1025;42.686;23.350;2023-05-07T08:31:49;14.70;;;8.77;;
2039;SDS011;1025;42.686;23.350;2023-05-07T08:34:15;7.30;;;6.80;;
2039;SDS011;1025;42.686;23.350;2023-05-07T08:36:42;8.27;;;7.67;;
2039;SDS011;1025;42.686;23.350;2023-05-07T08:39:09;8.93;;;6.90;;
2039;SDS011;1025;42.686;23.350;2023-05-07T08:41:35;9.00;;;8.10;;
2039;SDS011;1025;42.686;23.350;2023-05-07T08:44:02;10.07;;;9.00;;
2039;SDS011;1025;42.686;23.350;2023-05-07T08:46:30;15.30;;;8.27;;
2039;SDS011;1025;42.686;23.350;2023-05-07T08:48:58;9.77;;;8.80;;
2039;SDS011;1025;42.686;23.350;2023-05-07T08:51:25;7.90;;;7.20;;
2039;SDS011;1025;42.686;23.350;2023-05-07T08:53:52;5.53;;;5.03;;
2039;SDS011;1025;42.686;23.350;2023-05-07T08:56:18;9.03;;;6.87;;
2039;SDS011;1025;42.686;23.350;2023-05-07T08:58:46;7.53;;;6.90;;
2039;SDS011;1025;42.686;23.350;2023-05-07T09:01:13;7.87;;;6.00;;
2039;SDS011;1025;42.686;23.350;2023-05-07T09:03:40;5.50;;;5.10;;
2039;SDS011;1025;42.686;23.350;2023-05-07T09:06:09;6.13;;;5.70;;
2039;SDS011;1025;42.686;23.350;2023-05-07T09:08:36;12.53;;;6.70;;
2039;SDS011;1025;42.686;23.350;2023-05-07T09:11:02;5.70;;;5.20;;
2039;SDS011;1025;42.686;23.350;2023-05-07T09:13:29;6.00;;;5.40;;
2039;SDS011;1025;42.686;23.350;2023-05-07T09:15:56;5.40;;;5.00;;
2039;SDS011;1025;42.686;23.350;2023-05-07T09:18:23;6.60;;;6.00;;
2039;SDS011;1025;42.686;23.350;2023-05-07T09:20:49;4.93;;;4.57;;
2039;SDS011;1025;42.686;23.350;2023-05-07T09:23:18;11.47;;;6.17;;
2039;SDS011;1025;42.686;23.350;2023-05-07T09:25:44;5.23;;;4.87;;
2039;SDS011;1025;42.686;23.350;2023-05-07T09:28:11;4.67;;;4.20;;
2039;SDS011;1025;42.686;23.350;2023-05-07T09:30:38;5.63;;;4.43;;
2039;SDS011;1025;42.686;23.350;2023-05-07T09:33:04;5.80;;;5.30;;
2039;SDS011;1025;42.686;23.350;2023-05-07T09:35:31;5.20;;;4.80;;
2039;SDS011;1025;42.686;23.350;2023-05-07T09:37:58;4.40;;;4.00;;
2039;SDS011;1025;42.686;23.350;2023-05-07T09:40:26;7.30;;;5.80;;
2039;SDS011;1025;42.686;23.350;2023-05-07T09:42:53;5.17;;;3.83;;
2039;SDS011;1025;42.686;23.350;2023-05-07T09:45:24;4.07;;;3.77;;
2039;SDS011;1025;42.686;23.350;2023-05-07T09:47:53;4.83;;;3.83;;
2039;SDS011;1025;42.686;23.350;2023-05-07T09:50:20;4.43;;;4.03;;
2039;SDS011;1025;42.686;23.350;2023-05-07T09:52:48;10.67;;;5.53;;
2039;SDS011;1025;42.686;23.350;2023-05-07T09:55:15;9.00;;;4.80;;
2039;SDS011;1025;42.686;23.350;2023-05-07T09:57:43;5.17;;;4.60;;
2039;SDS011;1025;42.686;23.350;2023-05-07T10:00:11;5.77;;;5.20;;
2039;SDS011;1025;42.686;23.350;2023-05-07T10:02:38;5.30;;;4.90;;
2039;SDS011;1025;42.686;23.350;2023-05-07T10:05:11;4.03;;;3.73;;
2039;SDS011;1025;42.686;23.350;2023-05-07T10:07:38;8.20;;;5.40;;
2039;SDS011;1025;42.686;23.350;2023-05-07T10:10:06;6.20;;;3.90;;
2039;SDS011;1025;42.686;23.350;2023-05-07T10:12:33;4.33;;;3.93;;
2039;SDS011;1025;42.686;23.350;2023-05-07T10:15:07;5.57;;;4.90;;
2039;SDS011;1025;42.686;23.350;2023-05-07T10:17:34;8.30;;;6.17;;
2039;SDS011;1025;42.686;23.350;2023-05-07T10:20:01;4.47;;;4.03;;
2039;SDS011;1025;42.686;23.350;2023-05-07T10:22:29;7.47;;;4.37;;
2039;SDS011;1025;42.686;23.350;2023-05-07T10:24:59;4.53;;;3.63;;
2039;SDS011;1025;42.686;23.350;2023-05-07T10:27:25;4.07;;;2.53;;
2039;SDS011;1025;42.686;23.350;2023-05-07T10:29:53;3.60;;;3.30;;
2039;SDS011;1025;42.686;23.350;2023-05-07T10:32:30;3.50;;;3.20;;
2039;SDS011;1025;42.686;23.350;2023-05-07T10:35:00;5.70;;;4.47;;
2039;SDS011;1025;42.686;23.350;2023-05-07T10:37:28;5.53;;;5.03;;
2039;SDS011;1025;42.686;23.350;2023-05-07T10:39:55;5.23;;;4.47;;
2039;SDS011;1025;42.686;23.350;2023-05-07T10:42:22;4.53;;;4.23;;
2039;SDS011;1025;42.686;23.350;2023-05-07T10:44:49;5.83;;;3.47;;
2039;SDS011;1025;42.686;23.350;2023-05-07T10:47:16;3.40;;;3.20;;
2039;SDS011;1025;42.686;23.350;2023-05-07T10:52:32;3.80;;;3.40;;
2039;SDS011;1025;42.686;23.350;2023-05-07T10:57:43;4.50;;;4.03;;
2039;SDS011;1025;42.686;23.350;2023-05-07T11:03:06;4.90;;;4.50;;
2039;SDS011;1025;42.686;23.350;2023-05-07T11:05:33;4.13;;;3.93;;
2039;SDS011;1025;42.686;23.350;2023-05-07T11:08:01;3.20;;;3.10;;
2039;SDS011;1025;42.686;23.350;2023-05-07T11:13:13;4.27;;;3.90;;
2039;SDS011;1025;42.686;23.350;2023-05-07T11:15:41;5.87;;;5.47;;
2039;SDS011;1025;42.686;23.350;2023-05-07T11:18:08;5.50;;;4.50;;
2039;SDS011;1025;42.686;23.350;2023-05-07T11:20:44;6.10;;;4.20;;
2039;SDS011;1025;42.686;23.350;2023-05-07T11:23:21;10.27;;;3.73;;
2039;SDS011;1025;42.686;23.350;2023-05-07T11:26:08;4.30;;;4.00;;
2039;SDS011;1025;42.686;23.350;2023-05-07T11:28:36;4.13;;;3.83;;
2039;SDS011;1025;42.686;23.350;2023-05-07T11:31:03;5.63;;;3.90;;
2039;SDS011;1025;42.686;23.350;2023-05-07T11:33:30;5.80;;;4.00;;
2039;SDS011;1025;42.686;23.350;2023-05-07T11:35:57;6.10;;;3.40;;
2039;SDS011;1025;42.686;23.350;2023-05-07T11:38:25;3.70;;;3.40;;
2039;SDS011;1025;42.686;23.350;2023-05-07T11:40:53;6.03;;;4.17;;
2039;SDS011;1025;42.686;23.350;2023-05-07T11:43:20;4.17;;;3.87;;
2039;SDS011;1025;42.686;23.350;2023-05-07T11:45:46;4.33;;;3.37;;
2039;SDS011;1025;42.686;23.350;2023-05-07T11:48:13;5.10;;;4.03;;
2039;SDS011;1025;42.686;23.350;2023-05-07T11:50:49;3.90;;;3.60;;
2039;SDS011;1025;42.686;23.350;2023-05-07T11:53:16;4.03;;;3.83;;
2039;SDS011;1025;42.686;23.350;2023-05-07T11:55:45;3.37;;;3.17;;
2039;SDS011;1025;42.686;23.350;2023-05-07T11:58:12;3.80;;;3.60;;
2039;SDS011;1025;42.686;23.350;2023-05-07T12:00:38;9.60;;;5.53;;
2039;SDS011;1025;42.686;23.350;2023-05-07T12:03:05;4.90;;;4.40;;
2039;SDS011;1025;42.686;23.350;2023-05-07T12:05:32;3.83;;;3.53;;
2039;SDS011;1025;42.686;23.350;2023-05-07T12:07:58;4.63;;;3.23;;
2039;SDS011;1025;42.686;23.350;2023-05-07T12:10:25;7.77;;;4.10;;
2039;SDS011;1025;42.686;23.350;2023-05-07T12:12:53;3.53;;;3.23;;
2039;SDS011;1025;42.686;23.350;2023-05-07T12:15:22;3.40;;;3.17;;
2039;SDS011;1025;42.686;23.350;2023-05-07T12:17:48;6.03;;;3.53;;
2039;SDS011;1025;42.686;23.350;2023-05-07T12:20:15;4.27;;;3.70;;
2039;SDS011;1025;42.686;23.350;2023-05-07T12:22:42;3.67;;;3.40;;
2039;SDS011;1025;42.686;23.350;2023-05-07T12:25:09;6.77;;;4.50;;
2039;SDS011;1025;42.686;23.350;2023-05-07T12:27:36;4.53;;;3.57;;
2039;SDS011;1025;42.686;23.350;2023-05-07T12:30:05;2.70;;;2.60;;
2039;SDS011;1025;42.686;23.350;2023-05-07T12:32:32;3.13;;;2.93;;
2039;SDS011;1025;42.686;23.350;2023-05-07T12:35:01;3.07;;;2.87;;
2039;SDS011;1025;42.686;23.350;2023-05-07T12:37:28;3.07;;;2.73;;
2039;SDS011;1025;42.686;23.350;2023-05-07T12:40:03;4.07;;;3.77;;
2039;SDS011;1025;42.686;23.350;2023-05-07T12:42:32;3.43;;;3.13;;
2039;SDS011;1025;42.686;23.350;2023-05-07T12:44:59;3.00;;;2.80;;
2039;SDS011;1025;42.686;23.350;2023-05-07T12:47:28;2.93;;;2.50;;
2039;SDS011;1025;42.686;23.350;2023-05-07T12:49:56;4.40;;;2.27;;
2039;SDS011;1025;42.686;23.350;2023-05-07T12:52:23;4.00;;;3.00;;
2039;SDS011;1025;42.686;23.350;2023-05-07T12:54:50;3.60;;;3.13;;
2039;SDS011;1025;42.686;23.350;2023-05-07T12:57:18;8.50;;;5.83;;
2039;SDS011;1025;42.686;23.350;2023-05-07T12:59:45;3.27;;;3.07;;
2039;SDS011;1025;42.686;23.350;2023-05-07T13:02:11;2.90;;;2.70;;
2039;SDS011;1025;42.686;23.350;2023-05-07T13:04:39;3.07;;;2.87;;
2039;SDS011;1025;42.686;23.350;2023-05-07T13:07:06;2.77;;;2.60;;
2039;SDS011;1025;42.686;23.350;2023-05-07T13:09:32;3.87;;;2.63;;
2039;SDS011;1025;42.686;23.350;2023-05-07T13:11:59;3.00;;;2.80;;
2039;SDS011;1025;42.686;23.350;2023-05-07T13:14:26;3.10;;;2.90;;
2039;SDS011;1025;42.686;23.350;2023-05-07T13:16:52;6.53;;;2.90;;
2039;SDS011;1025;42.686;23.350;2023-05-07T13:19:19;2.67;;;2.47;;
2039;SDS011;1025;42.686;23.350;2023-05-07T13:21:47;3.20;;;2.90;;
2039;SDS011;1025;42.686;23.350;2023-05-07T13:24:14;3.07;;;2.87;;
2039;SDS011;1025;42.686;23.350;2023-05-07T13:26:41;3.30;;;3.00;;
2039;SDS011;1025;42.686;23.350;2023-05-07T13:29:07;3.23;;;3.03;;
2039;SDS011;1025;42.686;23.350;2023-05-07T13:31:34;2.90;;;2.70;;
2039;SDS011;1025;42.686;23.350;2023-05-07T13:34:01;3.83;;;2.60;;
2039;SDS011;1025;42.686;23.350;2023-05-07T13:36:28;2.67;;;2.47;;
2039;SDS011;1025;42.686;23.350;2023-05-07T13:38:59;5.10;;;2.87;;
2039;SDS011;1025;42.686;23.350;2023-05-07T13:41:26;2.70;;;2.50;;
2039;SDS011;1025;42.686;23.350;2023-05-07T13:43:53;3.23;;;3.03;;
2039;SDS011;1025;42.686;23.350;2023-05-07T13:46:19;3.00;;;2.90;;
2039;SDS011;1025;42.686;23.350;2023-05-07T13:48:46;2.77;;;2.50;;
2039;SDS011;1025;42.686;23.350;2023-05-07T13:51:12;5.70;;;4.50;;
2039;SDS011;1025;42.686;23.350;2023-05-07T13:53:39;3.70;;;2.90;;
2039;SDS011;1025;42.686;23.350;2023-05-07T13:56:07;3.37;;;3.00;;
2039;SDS011;1025;42.686;23.350;2023-05-07T13:58:33;2.40;;;2.20;;
2039;SDS011;1025;42.686;23.350;2023-05-07T14:01:01;4.53;;;3.20;;
2039;SDS011;1025;42.686;23.350;2023-05-07T14:03:27;2.60;;;2.40;;
2039;SDS011;1025;42.686;23.350;2023-05-07T14:05:56;5.33;;;3.67;;
2039;SDS011;1025;42.686;23.350;2023-05-07T14:08:25;6.37;;;5.77;;
2039;SDS011;1025;42.686;23.350;2023-05-07T14:10:51;3.40;;;3.10;;
2039;SDS011;1025;42.686;23.350;2023-05-07T14:13:19;6.97;;;3.60;;
2039;SDS011;1025;42.686;23.350;2023-05-07T14:15:46;2.57;;;2.37;;
2039;SDS011;1025;42.686;23.350;2023-05-07T14:18:14;3.00;;;2.80;;
2039;SDS011;1025;42.686;23.350;2023-05-07T14:20:40;2.70;;;2.50;;
2039;SDS011;1025;42.686;23.350;2023-05-07T14:23:08;2.90;;;2.67;;
2039;SDS011;1025;42.686;23.350;2023-05-07T14:25:34;4.67;;;3.90;;
2039;SDS011;1025;42.686;23.350;2023-05-07T14:28:01;5.40;;;3.90;;
2039;SDS011;1025;42.686;23.350;2023-05-07T14:30:29;6.50;;;4.30;;
2039;SDS011;1025;42.686;23.350;2023-05-07T14:32:55;3.70;;;3.40;;
2039;SDS011;1025;42.686;23.350;2023-05-07T14:35:22;8.07;;;2.83;;
2039;SDS011;1025;42.686;23.350;2023-05-07T14:37:48;3.37;;;3.07;;
2039;SDS011;1025;42.686;23.350;2023-05-07T14:40:15;3.30;;;3.10;;
2039;SDS011;1025;42.686;23.350;2023-05-07T14:42:41;3.50;;;3.20;;
2039;SDS011;1025;42.686;23.350;2023-05-07T14:45:08;3.13;;;2.87;;
2039;SDS011;1025;42.686;23.350;2023-05-07T14:47:36;6.20;;;4.10;;
2039;SDS011;1025;42.686;23.350;2023-05-07T14:50:03;15.37;;;3.87;;
2039;SDS011;1025;42.686;23.350;2023-05-07T14:52:30;4.30;;;2.50;;
2039;SDS011;1025;42.686;23.350;2023-05-07T14:54:56;2.50;;;2.40;;
2039;SDS011;1025;42.686;23.350;2023-05-07T14:57:23;6.07;;;3.03;;
2039;SDS011;1025;42.686;23.350;2023-05-07T14:59:49;3.70;;;3.40;;
2039;SDS011;1025;42.686;23.350;2023-05-07T15:02:16;4.53;;;3.30;;